sensor_id;sensor_type;location;lat;lon;timestamp;pressure;altitude;pressure_sealevel;temperature;humidity
20115;BME280;10218;42.874;25.320;2023-03-03T00:00:57;97438.00;;;6.51;100.00
20115;BME280;10218;42.874;25.320;2023-03-03T00:03:25;97418.16;;;6.74;100.00
20115;BME280;10218;42.874;25.320;2023-03-03T00:05:55;97425.28;;;6.64;100.00
20115;BME280;10218;42.874;25.320;2023-03-03T00:08:22;97424.59;;;6.42;100.00
20115;BME280;10218;42.874;25.320;2023-03-03T00:10:49;97419.56;;;6.59;100.00
20115;BME280;10218;42.874;25.320;2023-03-03T00:13:23;97426.81;;;6.47;100.00
20115;BME280;10218;42.874;25.320;2023-03-03T00:15:51;97419.00;;;6.26;100.00
20115;BME280;10218;42.874;25.320;2023-03-03T00:18:32;97410.59;;;6.79;100.00
20115;BME280;10218;42.874;25.320;2023-03-03T00:21:02;97406.78;;;6.91;100.00
20115;BME280;10218;42.874;25.320;2023-03-03T00:23:38;97403.31;;;6.81;100.00
20115;BME280;10218;42.874;25.320;2023-03-03T00:26:20;97403.28;;;7.00;100.00
20115;BME280;10218;42.874;25.320;2023-03-03T00:28:50;97395.63;;;6.78;100.00
20115;BME280;10218;42.874;25.320;2023-03-03T00:33:48;97391.03;;;6.61;100.00
20115;BME280;10218;42.874;25.320;2023-03-03T00:36:29;97388.00;;;7.12;100.00
20115;BME280;10218;42.874;25.320;2023-03-03T00:39:23;97374.97;;;7.18;100.00
20115;BME280;10218;42.874;25.320;2023-03-03T00:41:51;97369.44;;;7.39;100.00
20115;BME280;10218;42.874;25.320;2023-03-03T00:44:31;97368.50;;;7.30;100.00
20115;BME280;10218;42.874;25.320;2023-03-03T00:52:29;97371.37;;;6.25;100.00
20115;BME280;10218;42.874;25.320;2023-03-03T00:54:59;97362.03;;;6.96;100.00
20115;BME280;10218;42.874;25.320;2023-03-03T00:57:26;97361.41;;;7.12;100.00
20115;BME280;10218;42.874;25.320;2023-03-03T00:59:53;97356.94;;;7.12;100.00
20115;BME280;10218;42.874;25.320;2023-03-03T01:02:20;97354.41;;;7.20;100.00
20115;BME280;10218;42.874;25.320;2023-03-03T01:04:50;97351.88;;;6.82;100.00
20115;BME280;10218;42.874;25.320;2023-03-03T01:07:18;97347.16;;;6.66;100.00
20115;BME280;10218;42.874;25.320;2023-03-03T01:09:45;97339.88;;;6.78;100.00
20115;BME280;10218;42.874;25.320;2023-03-03T01:12:12;97341.63;;;6.60;100.00
20115;BME280;10218;42.874;25.320;2023-03-03T01:14:39;97339.97;;;6.39;100.00
20115;BME280;10218;42.874;25.320;2023-03-03T01:17:07;97339.13;;;6.49;100.00
20115;BME280;10218;42.874;25.320;2023-03-03T01:19:34;97335.03;;;7.10;100.00
20115;BME280;10218;42.874;25.320;2023-03-03T01:22:01;97323.72;;;7.36;100.00
20115;BME280;10218;42.874;25.320;2023-03-03T01:24:29;97335.13;;;6.72;100.00
20115;BME280;10218;42.874;25.320;2023-03-03T01:26:55;97335.50;;;6.21;100.00
20115;BME280;10218;42.874;25.320;2023-03-03T01:29:22;97335.59;;;6.58;100.00
20115;BME280;10218;42.874;25.320;2023-03-03T01:31:50;97342.19;;;6.44;100.00
20115;BME280;10218;42.874;25.320;2023-03-03T01:34:17;97341.91;;;6.47;100.00
20115;BME280;10218;42.874;25.320;2023-03-03T01:36:44;97342.03;;;6.45;100.00
20115;BME280;10218;42.874;25.320;2023-03-03T01:39:11;97327.50;;;6.40;100.00
20115;BME280;10218;42.874;25.320;2023-03-03T01:41:38;97331.44;;;6.26;100.00
20115;BME280;10218;42.874;25.320;2023-03-03T01:44:06;97325.31;;;6.82;100.00
20115;BME280;10218;42.874;25.320;2023-03-03T01:46:58;97324.16;;;6.48;100.00
20115;BME280;10218;42.874;25.320;2023-03-03T01:49:35;97332.13;;;6.48;100.00
20115;BME280;10218;42.874;25.320;2023-03-03T01:52:13;97321.62;;;6.56;100.00
20115;BME280;10218;42.874;25.320;2023-03-03T01:54:50;97326.13;;;6.92;100.00
20115;BME280;10218;42.874;25.320;2023-03-03T01:57:25;97319.56;;;6.30;100.00
20115;BME280;10218;42.874;25.320;2023-03-03T01:59:56;97323.66;;;6.34;100.00
20115;BME280;10218;42.874;25.320;2023-03-03T02:02:26;97320.16;;;6.24;100.00
20115;BME280;10218;42.874;25.320;2023-03-03T02:04:54;97321.94;;;5.85;100.00
20115;BME280;10218;42.874;25.320;2023-03-03T02:07:24;97323.63;;;5.86;100.00
20115;BME280;10218;42.874;25.320;2023-03-03T02:12:38;97330.44;;;5.70;100.00
20115;BME280;10218;42.874;25.320;2023-03-03T02:15:30;97330.84;;;5.84;100.00
20115;BME280;10218;42.874;25.320;2023-03-03T02:18:02;97328.81;;;5.97;100.00
20115;BME280;10218;42.874;25.320;2023-03-03T02:26:11;97330.12;;;6.69;100.00
20115;BME280;10218;42.874;25.320;2023-03-03T02:28:40;97323.09;;;6.77;100.00
20115;BME280;10218;42.874;25.320;2023-03-03T02:31:12;97320.13;;;6.43;100.00
20115;BME280;10218;42.874;25.320;2023-03-03T02:33:43;97320.19;;;6.71;100.00
20115;BME280;10218;42.874;25.320;2023-03-03T02:36:15;97315.63;;;6.54;100.00
20115;BME280;10218;42.874;25.320;2023-03-03T02:39:06;97324.56;;;6.53;100.00
20115;BME280;10218;42.874;25.320;2023-03-03T02:42:26;97327.47;;;6.69;100.00
20115;BME280;10218;42.874;25.320;2023-03-03T02:44:47;97332.06;;;6.76;100.00
20115;BME280;10218;42.874;25.320;2023-03-03T02:47:14;97323.38;;;6.84;100.00
20115;BME280;10218;42.874;25.320;2023-03-03T02:49:41;97319.88;;;6.83;100.00
20115;BME280;10218;42.874;25.320;2023-03-03T02:52:10;97324.03;;;6.96;100.00
20115;BME280;10218;42.874;25.320;2023-03-03T02:54:37;97324.16;;;6.48;100.00
20115;BME280;10218;42.874;25.320;2023-03-03T02:57:04;97321.97;;;6.90;100.00
20115;BME280;10218;42.874;25.320;2023-03-03T02:59:32;97322.66;;;7.19;100.00
20115;BME280;10218;42.874;25.320;2023-03-03T03:01:59;97326.34;;;7.08;100.00
20115;BME280;10218;42.874;25.320;2023-03-03T03:04:27;97323.56;;;7.10;100.00
20115;BME280;10218;42.874;25.320;2023-03-03T03:06:54;97319.34;;;7.07;100.00
20115;BME280;10218;42.874;25.320;2023-03-03T03:09:23;97327.94;;;6.55;100.00
20115;BME280;10218;42.874;25.320;2023-03-03T03:11:51;97326.28;;;6.44;100.00
20115;BME280;10218;42.874;25.320;2023-03-03T03:14:19;97325.94;;;7.03;100.00
20115;BME280;10218;42.874;25.320;2023-03-03T03:16:46;97326.34;;;7.08;100.00
20115;BME280;10218;42.874;25.320;2023-03-03T03:19:13;97326.31;;;6.81;100.00
20115;BME280;10218;42.874;25.320;2023-03-03T03:21:41;97326.84;;;6.94;100.00
20115;BME280;10218;42.874;25.320;2023-03-03T03:24:08;97328.50;;;6.49;100.00
20115;BME280;10218;42.874;25.320;2023-03-03T03:26:36;97314.53;;;6.47;100.00
20115;BME280;10218;42.874;25.320;2023-03-03T03:29:03;97321.53;;;6.38;100.00
20115;BME280;10218;42.874;25.320;2023-03-03T03:31:31;97318.94;;;6.75;100.00
20115;BME280;10218;42.874;25.320;2023-03-03T03:33:58;97319.44;;;6.88;100.00
20115;BME280;10218;42.874;25.320;2023-03-03T03:36:26;97307.53;;;6.92;100.00
20115;BME280;10218;42.874;25.320;2023-03-03T03:38:54;97307.50;;;7.02;100.00
20115;BME280;10218;42.874;25.320;2023-03-03T03:41:21;97309.22;;;6.93;100.00
20115;BME280;10218;42.874;25.320;2023-03-03T03:43:48;97312.63;;;6.85;100.00
20115;BME280;10218;42.874;25.320;2023-03-03T03:46:15;97311.06;;;6.36;100.00
20115;BME280;10218;42.874;25.320;2023-03-03T03:48:42;97309.41;;;6.82;100.00
20115;BME280;10218;42.874;25.320;2023-03-03T03:51:11;97301.00;;;6.30;100.00
20115;BME280;10218;42.874;25.320;2023-03-03T03:53:38;97299.75;;;6.81;100.00
20115;BME280;10218;42.874;25.320;2023-03-03T03:56:06;97300.94;;;6.96;100.00
20115;BME280;10218;42.874;25.320;2023-03-03T03:58:33;97300.63;;;6.72;100.00
20115;BME280;10218;42.874;25.320;2023-03-03T04:01:02;97301.00;;;6.50;100.00
20115;BME280;10218;42.874;25.320;2023-03-03T04:03:31;97275.94;;;6.62;100.00
20115;BME280;10218;42.874;25.320;2023-03-03T04:05:58;97290.63;;;6.93;100.00
20115;BME280;10218;42.874;25.320;2023-03-03T04:08:25;97286.72;;;6.87;100.00
20115;BME280;10218;42.874;25.320;2023-03-03T04:10:52;97282.91;;;7.00;100.00
20115;BME280;10218;42.874;25.320;2023-03-03T04:13:20;97285.47;;;6.55;100.00
20115;BME280;10218;42.874;25.320;2023-03-03T04:15:48;97273.16;;;6.54;100.00
20115;BME280;10218;42.874;25.320;2023-03-03T04:18:15;97281.88;;;6.36;100.00
20115;BME280;10218;42.874;25.320;2023-03-03T04:20:42;97277.50;;;6.55;100.00
20115;BME280;10218;42.874;25.320;2023-03-03T04:23:10;97281.03;;;6.82;100.00
20115;BME280;10218;42.874;25.320;2023-03-03T04:25:37;97264.00;;;6.38;100.00
20115;BME280;10218;42.874;25.320;2023-03-03T04:28:10;97288.31;;;7.08;100.00
20115;BME280;10218;42.874;25.320;2023-03-03T04:30:37;97276.41;;;6.38;100.00
20115;BME280;10218;42.874;25.320;2023-03-03T04:33:04;97283.84;;;6.71;100.00
20115;BME280;10218;42.874;25.320;2023-03-03T04:35:32;97284.62;;;6.54;100.00
20115;BME280;10218;42.874;25.320;2023-03-03T04:37:59;97287.41;;;6.53;100.00
20115;BME280;10218;42.874;25.320;2023-03-03T04:40:27;97289.84;;;6.83;100.00
20115;BME280;10218;42.874;25.320;2023-03-03T04:42:56;97283.78;;;7.18;100.00
20115;BME280;10218;42.874;25.320;2023-03-03T04:45:24;97295.47;;;6.61;100.00
20115;BME280;10218;42.874;25.320;2023-03-03T04:47:51;97290.38;;;6.30;100.00
20115;BME280;10218;42.874;25.320;2023-03-03T04:50:18;97294.19;;;6.18;100.00
20115;BME280;10218;42.874;25.320;2023-03-03T04:52:46;97291.97;;;6.23;100.00
20115;BME280;10218;42.874;25.320;2023-03-03T04:55:14;97296.59;;;6.68;100.00
20115;BME280;10218;42.874;25.320;2023-03-03T04:57:44;97292.63;;;6.81;100.00
20115;BME280;10218;42.874;25.320;2023-03-03T05:00:12;97297.69;;;6.75;100.00
20115;BME280;10218;42.874;25.320;2023-03-03T05:02:40;97299.16;;;6.50;100.00
20115;BME280;10218;42.874;25.320;2023-03-03T05:05:08;97301.78;;;6.60;100.00
20115;BME280;10218;42.874;25.320;2023-03-03T05:07:36;97304.16;;;6.63;100.00
20115;BME280;10218;42.874;25.320;2023-03-03T05:10:04;97303.09;;;6.36;100.00
20115;BME280;10218;42.874;25.320;2023-03-03T05:12:31;97298.03;;;6.53;100.00
20115;BME280;10218;42.874;25.320;2023-03-03T05:14:58;97297.09;;;6.81;100.00
20115;BME280;10218;42.874;25.320;2023-03-03T05:17:25;97287.47;;;7.07;100.00
20115;BME280;10218;42.874;25.320;2023-03-03T05:19:52;97294.25;;;6.65;100.00
20115;BME280;10218;42.874;25.320;2023-03-03T05:22:19;97308.69;;;6.33;100.00
20115;BME280;10218;42.874;25.320;2023-03-03T05:24:47;97299.91;;;6.23;100.00
20115;BME280;10218;42.874;25.320;2023-03-03T05:27:15;97308.16;;;6.01;100.00
20115;BME280;10218;42.874;25.320;2023-03-03T05:29:42;97298.50;;;6.85;100.00
20115;BME280;10218;42.874;25.320;2023-03-03T05:32:10;97296.25;;;6.90;100.00
20115;BME280;10218;42.874;25.320;2023-03-03T05:34:37;97301.00;;;6.30;100.00
20115;BME280;10218;42.874;25.320;2023-03-03T05:37:04;97304.19;;;6.53;100.00
20115;BME280;10218;42.874;25.320;2023-03-03T05:39:33;97305.06;;;6.34;100.00
20115;BME280;10218;42.874;25.320;2023-03-03T05:42:01;97283.84;;;6.25;100.00
20115;BME280;10218;42.874;25.320;2023-03-03T05:44:28;97307.50;;;6.65;100.00
20115;BME280;10218;42.874;25.320;2023-03-03T05:46:55;97308.03;;;6.78;100.00
20115;BME280;10218;42.874;25.320;2023-03-03T05:49:24;97311.41;;;6.61;100.00
20115;BME280;10218;42.874;25.320;2023-03-03T05:51:51;97315.94;;;6.31;100.00
20115;BME280;10218;42.874;25.320;2023-03-03T05:54:19;97313.22;;;6.70;100.00
20115;BME280;10218;42.874;25.320;2023-03-03T05:56:46;97310.50;;;6.42;100.00
20115;BME280;10218;42.874;25.320;2023-03-03T05:59:13;97302.91;;;7.31;100.00
20115;BME280;10218;42.874;25.320;2023-03-03T06:01:41;97298.91;;;7.17;100.00
20115;BME280;10218;42.874;25.320;2023-03-03T06:04:08;97296.38;;;7.43;100.00
20115;BME280;10218;42.874;25.320;2023-03-03T06:06:35;97292.00;;;6.97;100.00
20115;BME280;10218;42.874;25.320;2023-03-03T06:09:02;97295.87;;;6.66;100.00
20115;BME280;10218;42.874;25.320;2023-03-03T06:11:30;97294.41;;;6.54;100.00
20115;BME280;10218;42.874;25.320;2023-03-03T06:13:57;97305.50;;;7.13;100.00
20115;BME280;10218;42.874;25.320;2023-03-03T06:16:24;97301.78;;;6.60;100.00
20115;BME280;10218;42.874;25.320;2023-03-03T06:18:51;97298.75;;;6.35;100.00
20115;BME280;10218;42.874;25.320;2023-03-03T06:21:18;97297.03;;;6.63;100.00
20115;BME280;10218;42.874;25.320;2023-03-03T06:23:45;97306.28;;;6.59;100.00
20115;BME280;10218;42.874;25.320;2023-03-03T06:26:12;97298.22;;;6.22;100.00
20115;BME280;10218;42.874;25.320;2023-03-03T06:28:39;97305.00;;;6.63;100.00
20115;BME280;10218;42.874;25.320;2023-03-03T06:31:06;97300.19;;;6.76;100.00
20115;BME280;10218;42.874;25.320;2023-03-03T06:33:34;97301.94;;;6.95;100.00
20115;BME280;10218;42.874;25.320;2023-03-03T06:36:01;97307.34;;;7.03;100.00
20115;BME280;10218;42.874;25.320;2023-03-03T06:38:30;97304.66;;;6.76;100.00
20115;BME280;10218;42.874;25.320;2023-03-03T06:40:57;97308.63;;;6.62;100.00
20115;BME280;10218;42.874;25.320;2023-03-03T06:43:27;97306.81;;;6.63;100.00
20115;BME280;10218;42.874;25.320;2023-03-03T06:45:54;97311.59;;;6.86;100.00
20115;BME280;10218;42.874;25.320;2023-03-03T06:48:21;97301.22;;;7.03;100.00
20115;BME280;10218;42.874;25.320;2023-03-03T06:50:48;97309.53;;;6.90;100.00
20115;BME280;10218;42.874;25.320;2023-03-03T06:53:17;97316.75;;;6.51;100.00
20115;BME280;10218;42.874;25.320;2023-03-03T06:55:45;97314.78;;;6.63;100.00
20115;BME280;10218;42.874;25.320;2023-03-03T06:58:19;97315.16;;;7.14;100.00
20115;BME280;10218;42.874;25.320;2023-03-03T07:00:58;97313.47;;;7.13;100.00
20115;BME280;10218;42.874;25.320;2023-03-03T07:03:34;97304.81;;;7.39;100.00
20115;BME280;10218;42.874;25.320;2023-03-03T07:06:07;97310.63;;;7.24;100.00
20115;BME280;10218;42.874;25.320;2023-03-03T07:08:40;97305.50;;;7.41;100.00
20115;BME280;10218;42.874;25.320;2023-03-03T07:11:11;97301.56;;;6.90;100.00
20115;BME280;10218;42.874;25.320;2023-03-03T07:13:46;97287.09;;;7.02;100.00
20115;BME280;10218;42.874;25.320;2023-03-03T07:16:15;97269.25;;;6.58;100.00
20115;BME280;10218;42.874;25.320;2023-03-03T07:18:51;97307.50;;;6.65;100.00
20115;BME280;10218;42.874;25.320;2023-03-03T07:21:30;97304.81;;;6.74;100.00
20115;BME280;10218;42.874;25.320;2023-03-03T07:24:00;97317.09;;;7.12;100.00
20115;BME280;10218;42.874;25.320;2023-03-03T07:26:29;97308.81;;;7.43;100.00
20115;BME280;10218;42.874;25.320;2023-03-03T07:29:21;97292.03;;;7.87;100.00
20115;BME280;10218;42.874;25.320;2023-03-03T07:31:52;97296.09;;;7.64;100.00
20115;BME280;10218;42.874;25.320;2023-03-03T07:36:53;97278.16;;;7.30;100.00
20115;BME280;10218;42.874;25.320;2023-03-03T07:39:29;97284.94;;;7.60;100.00
20115;BME280;10218;42.874;25.320;2023-03-03T07:42:21;97282.50;;;7.85;100.00
20115;BME280;10218;42.874;25.320;2023-03-03T07:44:52;97278.19;;;8.01;100.00
20115;BME280;10218;42.874;25.320;2023-03-03T07:49:54;97278.63;;;8.14;100.00
20115;BME280;10218;42.874;25.320;2023-03-03T07:52:29;97275.56;;;7.39;100.00
20115;BME280;10218;42.874;25.320;2023-03-03T07:54:59;97284.72;;;7.26;100.00
20115;BME280;10218;42.874;25.320;2023-03-03T07:57:35;97283.41;;;7.58;100.00
20115;BME280;10218;42.874;25.320;2023-03-03T08:02:46;97282.25;;;7.43;100.00
20115;BME280;10218;42.874;25.320;2023-03-03T08:05:36;97284.62;;;7.99;100.00
20115;BME280;10218;42.874;25.320;2023-03-03T08:10:58;97269.91;;;7.69;100.00
20115;BME280;10218;42.874;25.320;2023-03-03T08:13:35;97275.50;;;7.48;100.00
20115;BME280;10218;42.874;25.320;2023-03-03T08:18:42;97268.97;;;7.78;100.00
20115;BME280;10218;42.874;25.320;2023-03-03T08:21:14;97266.38;;;8.22;100.00
20115;BME280;10218;42.874;25.320;2023-03-03T08:23:41;97262.91;;;7.86;100.00
20115;BME280;10218;42.874;25.320;2023-03-03T08:26:09;97263.84;;;7.77;100.00
20115;BME280;10218;42.874;25.320;2023-03-03T08:28:38;97259.72;;;7.82;100.00
20115;BME280;10218;42.874;25.320;2023-03-03T08:31:05;97261.38;;;8.01;100.00
20115;BME280;10218;42.874;25.320;2023-03-03T08:33:46;97258.13;;;8.07;100.00
20115;BME280;10218;42.874;25.320;2023-03-03T08:36:13;97262.47;;;8.34;100.00
20115;BME280;10218;42.874;25.320;2023-03-03T08:38:40;97256.56;;;8.04;100.00
20115;BME280;10218;42.874;25.320;2023-03-03T08:41:08;97257.28;;;7.89;100.00
20115;BME280;10218;42.874;25.320;2023-03-03T08:43:35;97254.16;;;7.58;100.00
20115;BME280;10218;42.874;25.320;2023-03-03T08:46:03;97250.16;;;7.71;100.00
20115;BME280;10218;42.874;25.320;2023-03-03T08:48:31;97254.56;;;7.81;100.00
20115;BME280;10218;42.874;25.320;2023-03-03T08:50:59;97246.62;;;7.89;100.00
20115;BME280;10218;42.874;25.320;2023-03-03T08:53:27;97251.00;;;8.33;100.00
20115;BME280;10218;42.874;25.320;2023-03-03T08:55:55;97245.56;;;8.17;100.00
20115;BME280;10218;42.874;25.320;2023-03-03T08:58:22;97234.31;;;7.52;100.00
20115;BME280;10218;42.874;25.320;2023-03-03T09:00:59;97246.72;;;7.44;100.00
20115;BME280;10218;42.874;25.320;2023-03-03T09:03:26;97241.72;;;7.76;100.00
20115;BME280;10218;42.874;25.320;2023-03-03T09:05:53;97238.44;;;8.26;100.00
20115;BME280;10218;42.874;25.320;2023-03-03T09:08:20;97236.22;;;7.95;100.00
20115;BME280;10218;42.874;25.320;2023-03-03T09:10:47;97234.34;;;7.35;100.00
20115;BME280;10218;42.874;25.320;2023-03-03T09:13:17;97230.16;;;7.50;100.00
20115;BME280;10218;42.874;25.320;2023-03-03T09:15:49;97230.38;;;7.74;100.00
20115;BME280;10218;42.874;25.320;2023-03-03T09:18:37;97225.13;;;7.47;100.00
20115;BME280;10218;42.874;25.320;2023-03-03T09:21:33;97223.16;;;7.84;100.00
20115;BME280;10218;42.874;25.320;2023-03-03T09:24:00;97230.19;;;8.11;100.00
20115;BME280;10218;42.874;25.320;2023-03-03T09:31:42;97226.91;;;9.02;100.00
20115;BME280;10218;42.874;25.320;2023-03-03T09:34:21;97221.25;;;9.06;100.00
20115;BME280;10218;42.874;25.320;2023-03-03T09:36:53;97220.44;;;8.71;100.00
20115;BME280;10218;42.874;25.320;2023-03-03T09:39:24;97220.50;;;8.53;100.00
20115;BME280;10218;42.874;25.320;2023-03-03T09:44:50;97218.94;;;7.56;100.00
20115;BME280;10218;42.874;25.320;2023-03-03T09:50:40;97225.53;;;8.31;100.00
20115;BME280;10218;42.874;25.320;2023-03-03T09:56:13;97197.03;;;9.33;100.00
20115;BME280;10218;42.874;25.320;2023-03-03T10:02:01;97212.97;;;8.75;100.00
20115;BME280;10218;42.874;25.320;2023-03-03T10:15:36;97205.72;;;8.59;100.00
20115;BME280;10218;42.874;25.320;2023-03-03T10:20:52;97184.91;;;9.55;100.00
20115;BME280;10218;42.874;25.320;2023-03-03T10:29:59;97180.50;;;9.21;100.00
20115;BME280;10218;42.874;25.320;2023-03-03T10:35:50;97174.03;;;9.40;100.00
20115;BME280;10218;42.874;25.320;2023-03-03T10:40:30;97174.38;;;9.29;100.00
20115;BME280;10218;42.874;25.320;2023-03-03T10:57:10;97149.53;;;9.36;100.00
20115;BME280;10218;42.874;25.320;2023-03-03T10:59:42;97143.34;;;9.20;100.00
20115;BME280;10218;42.874;25.320;2023-03-03T11:02:37;97139.53;;;9.22;100.00
20115;BME280;10218;42.874;25.320;2023-03-03T11:08:15;97135.34;;;9.12;100.00
20115;BME280;10218;42.874;25.320;2023-03-03T11:10:57;97130.94;;;8.86;100.00
20115;BME280;10218;42.874;25.320;2023-03-03T11:18:29;97133.88;;;8.67;100.00
20115;BME280;10218;42.874;25.320;2023-03-03T11:21:12;97128.75;;;8.82;100.00
20115;BME280;10218;42.874;25.320;2023-03-03T11:23:56;97133.31;;;8.55;100.00
20115;BME280;10218;42.874;25.320;2023-03-03T11:32:48;97121.38;;;9.42;100.00
20115;BME280;10218;42.874;25.320;2023-03-03T11:35:24;97128.84;;;9.22;100.00
20115;BME280;10218;42.874;25.320;2023-03-03T11:46:08;97127.66;;;8.58;100.00
20115;BME280;10218;42.874;25.320;2023-03-03T11:51:33;97134.06;;;8.32;100.00
20115;BME280;10218;42.874;25.320;2023-03-03T11:54:07;97133.06;;;8.33;100.00
20115;BME280;10218;42.874;25.320;2023-03-03T11:56:41;97134.97;;;8.23;100.00
20115;BME280;10218;42.874;25.320;2023-03-03T11:59:38;97136.59;;;8.15;100.00
20115;BME280;10218;42.874;25.320;2023-03-03T12:10:42;97114.69;;;8.22;100.00
20115;BME280;10218;42.874;25.320;2023-03-03T12:19:24;97130.78;;;8.38;100.00
20115;BME280;10218;42.874;25.320;2023-03-03T12:25:07;97120.97;;;8.88;100.00
20115;BME280;10218;42.874;25.320;2023-03-03T12:27:43;97128.47;;;8.43;100.00
20115;BME280;10218;42.874;25.320;2023-03-03T12:42:09;97127.81;;;8.49;100.00
20115;BME280;10218;42.874;25.320;2023-03-03T12:47:45;97137.25;;;8.77;100.00
20115;BME280;10218;42.874;25.320;2023-03-03T12:53:23;97130.66;;;8.97;100.00
20115;BME280;10218;42.874;25.320;2023-03-03T12:56:06;97131.84;;;9.11;100.00
20115;BME280;10218;42.874;25.320;2023-03-03T13:04:27;97137.66;;;9.07;100.00
20115;BME280;10218;42.874;25.320;2023-03-03T13:07:18;97125.69;;;9.35;100.00
20115;BME280;10218;42.874;25.320;2023-03-03T13:10:07;97130.25;;;8.76;100.00
20115;BME280;10218;42.874;25.320;2023-03-03T13:15:24;97135.44;;;8.44;100.00
20115;BME280;10218;42.874;25.320;2023-03-03T13:21:25;97143.22;;;8.71;100.00
20115;BME280;10218;42.874;25.320;2023-03-03T13:29:28;97137.69;;;8.65;100.00
20115;BME280;10218;42.874;25.320;2023-03-03T13:31:59;97135.87;;;8.05;100.00
20115;BME280;10218;42.874;25.320;2023-03-03T13:37:23;97139.28;;;8.24;100.00
20115;BME280;10218;42.874;25.320;2023-03-03T13:42:28;97134.87;;;8.66;100.00
20115;BME280;10218;42.874;25.320;2023-03-03T13:44:59;97122.59;;;8.73;100.00
20115;BME280;10218;42.874;25.320;2023-03-03T13:50:21;97128.25;;;8.78;100.00
20115;BME280;10218;42.874;25.320;2023-03-03T13:53:20;97119.84;;;9.15;100.00
20115;BME280;10218;42.874;25.320;2023-03-03T13:56:13;97125.81;;;8.51;100.00
20115;BME280;10218;42.874;25.320;2023-03-03T13:59:08;97134.78;;;8.42;100.00
20115;BME280;10218;42.874;25.320;2023-03-03T14:07:09;97120.34;;;8.52;100.00
20115;BME280;10218;42.874;25.320;2023-03-03T14:22:50;97121.59;;;8.32;100.00
20115;BME280;10218;42.874;25.320;2023-03-03T14:25:17;97123.88;;;8.61;100.00
20115;BME280;10218;42.874;25.320;2023-03-03T14:38:19;97114.22;;;8.00;100.00
20115;BME280;10218;42.874;25.320;2023-03-03T14:40:48;97109.25;;;8.05;100.00
20115;BME280;10218;42.874;25.320;2023-03-03T14:43:36;97097.06;;;7.95;100.00
20115;BME280;10218;42.874;25.320;2023-03-03T14:48:55;97116.31;;;7.89;100.00
20115;BME280;10218;42.874;25.320;2023-03-03T14:53:54;97127.47;;;7.92;100.00
20115;BME280;10218;42.874;25.320;2023-03-03T14:57:11;97136.44;;;7.91;100.00
20115;BME280;10218;42.874;25.320;2023-03-03T14:59:38;97133.09;;;7.89;100.00
20115;BME280;10218;42.874;25.320;2023-03-03T15:04:44;97126.66;;;8.26;100.00
20115;BME280;10218;42.874;25.320;2023-03-03T15:10:00;97137.84;;;7.78;100.00
20115;BME280;10218;42.874;25.320;2023-03-03T15:12:37;97133.97;;;7.72;100.00
20115;BME280;10218;42.874;25.320;2023-03-03T15:15:19;97130.75;;;8.12;100.00
20115;BME280;10218;42.874;25.320;2023-03-03T15:18:00;97135.97;;;7.96;100.00
20115;BME280;10218;42.874;25.320;2023-03-03T15:20:58;97136.25;;;7.67;100.00
20115;BME280;10218;42.874;25.320;2023-03-03T15:26:23;97133.44;;;7.86;100.00
20115;BME280;10218;42.874;25.320;2023-03-03T15:34:46;97130.69;;;8.04;100.00
20115;BME280;10218;42.874;25.320;2023-03-03T15:37:58;97134.97;;;8.23;100.00
20115;BME280;10218;42.874;25.320;2023-03-03T15:40:46;97135.75;;;7.89;100.00
20115;BME280;10218;42.874;25.320;2023-03-03T15:43:32;97139.59;;;7.69;100.00
20115;BME280;10218;42.874;25.320;2023-03-03T15:46:34;97136.25;;;7.67;100.00
20115;BME280;10218;42.874;25.320;2023-03-03T15:51:58;97140.25;;;8.14;100.00
20115;BME280;10218;42.874;25.320;2023-03-03T15:54:36;97126.59;;;7.22;100.00
20115;BME280;10218;42.874;25.320;2023-03-03T15:57:20;97130.88;;;7.77;100.00
20115;BME280;10218;42.874;25.320;2023-03-03T16:07:45;97144.34;;;7.40;100.00
20115;BME280;10218;42.874;25.320;2023-03-03T16:10:18;97151.72;;;7.46;100.00
20115;BME280;10218;42.874;25.320;2023-03-03T16:16:16;97154.38;;;8.15;100.00
20115;BME280;10218;42.874;25.320;2023-03-03T16:19:10;97153.69;;;7.44;100.00
20115;BME280;10218;42.874;25.320;2023-03-03T16:21:47;97152.22;;;7.67;100.00
20115;BME280;10218;42.874;25.320;2023-03-03T16:24:42;97156.66;;;7.84;100.00
20115;BME280;10218;42.874;25.320;2023-03-03T16:33:45;97165.81;;;8.07;100.00
20115;BME280;10218;42.874;25.320;2023-03-03T16:39:17;97171.59;;;8.29;100.00
20115;BME280;10218;42.874;25.320;2023-03-03T16:42:34;97181.00;;;8.15;100.00
20115;BME280;10218;42.874;25.320;2023-03-03T16:52:53;97186.19;;;7.38;100.00
20115;BME280;10218;42.874;25.320;2023-03-03T16:55:30;97194.13;;;7.73;100.00
20115;BME280;10218;42.874;25.320;2023-03-03T16:58:26;97194.16;;;8.16;100.00
20115;BME280;10218;42.874;25.320;2023-03-03T17:09:46;97199.72;;;8.05;100.00
20115;BME280;10218;42.874;25.320;2023-03-03T17:12:46;97204.50;;;7.41;100.00
20115;BME280;10218;42.874;25.320;2023-03-03T17:16:20;97196.50;;;7.58;100.00
20115;BME280;10218;42.874;25.320;2023-03-03T17:18:51;97200.16;;;7.75;100.00
20115;BME280;10218;42.874;25.320;2023-03-03T17:35:28;97200.00;;;7.59;100.00
20115;BME280;10218;42.874;25.320;2023-03-03T17:43:51;97217.19;;;7.64;100.00
20115;BME280;10218;42.874;25.320;2023-03-03T17:46:25;97223.34;;;8.08;100.00
20115;BME280;10218;42.874;25.320;2023-03-03T17:55:19;97221.69;;;8.07;100.00
20115;BME280;10218;42.874;25.320;2023-03-03T18:00:38;97220.22;;;7.87;100.00
20115;BME280;10218;42.874;25.320;2023-03-03T18:03:31;97220.13;;;7.79;100.00
20115;BME280;10218;42.874;25.320;2023-03-03T18:06:12;97225.91;;;7.92;100.00
20115;BME280;10218;42.874;25.320;2023-03-03T18:20:19;97241.16;;;7.37;100.00
20115;BME280;10218;42.874;25.320;2023-03-03T18:22:50;97247.38;;;7.28;100.00